PDT,Max TemperatureF,Mean TemperatureF,Min TemperatureF,Max Dew PointF,MeanDew PointF,Min DewpointF,Max Humidity, Mean Humidity, Min Humidity, Max Sea Level PressureIn, Mean Sea Level PressureIn, Min Sea Level PressureIn, Max VisibilityMiles, Mean VisibilityMiles, Min VisibilityMiles, Max Wind SpeedMPH, Mean Wind SpeedMPH, Max Gust SpeedMPH,PrecipitationIn, CloudCover, Events, WindDirDegrees
2013-8-1,79,68,56,51,50,46,86,59,32,30.01,29.96,29.91,10,10,10,23,15,32,0.00,0,,192
2013-8-2,88,72,56,52,50,43,86,54,21,29.93,29.88,29.83,10,10,10,18,11,25,0.00,0,,210
2013-8-3,84,70,55,54,51,48,86,60,33,29.93,29.88,29.84,10,10,10,21,10,25,0.00,0,,238
2013-8-4,82,69,55,52,51,48,86,60,33,30.00,29.94,29.88,10,10,10,18,10,22,0.00,3,,219
2013-8-5,80,67,54,53,50,44,86,59,31,30.02,29.94,29.87,10,10,10,18,9,23,0.00,3,,230
2013-8-6,74,64,54,54,52,50,89,68,46,30.03,29.97,29.93,10,10,10,18,11,26,0.00,4,,245
2013-8-7,71,64,57,55,53,51,86,68,49,30.09,30.03,30.00,10,10,10,20,12,26,0.00,6,,240
2013-8-8,78,67,56,55,53,48,93,65,36,30.01,29.95,29.89,10,10,10,16,10,22,0.00,4,,249
2013-8-9,77,67,56,54,52,51,86,65,43,29.99,29.92,29.86,10,10,10,17,11,21,0.00,3,,218
2013-8-10,80,69,57,56,54,53,86,64,42,30.00,29.97,29.94,10,10,10,17,10,22,0.00,3,,234
2013-8-11,85,71,56,55,53,49,87,60,32,30.02,29.95,29.88,10,10,10,18,10,32,0.00,2,,219
2013-8-12,87,72,56,54,51,46,86,56,25,29.95,29.91,29.87,10,10,10,16,9,18,0.00,0,,238
2013-8-13,93,74,54,55,49,39,86,51,16,29.95,29.90,29.84,10,10,10,18,6,26,0.00,0,,268
2013-8-14,90,75,59,58,51,45,78,51,23,29.92,29.89,29.84,10,10,10,16,11,21,0.00,0,,220
2013-8-15,88,75,62,61,59,56,90,63,36,29.91,29.88,29.85,10,10,10,17,12,23,0.00,0,,222
2013-8-16,91,77,63,61,57,45,93,61,28,29.93,29.90,29.88,10,10,10,16,10,21,0.00,0,,236
2013-8-17,84,73,61,57,55,51,78,57,36,29.94,29.87,29.80,10,10,10,18,12,29,0.00,1,,201
2013-8-18,97,78,58,59,56,53,78,51,24,29.85,29.78,29.72,10,10,8,18,5,24,0.00,0,,295
2013-8-19,93,79,64,59,55,49,78,52,26,29.83,29.79,29.75,10,10,9,18,7,24,T,1,,285
2013-8-20,87,73,58,55,52,43,84,55,25,29.84,29.80,29.75,10,10,10,20,11,32,0.00,0,,279
2013-8-21,82,70,57,54,52,47,86,58,30,29.93,29.86,29.79,10,10,10,17,10,22,0.00,1,,255
2013-8-22,78,68,57,54,52,51,86,63,40,29.96,29.88,29.84,10,10,10,17,9,23,0.00,2,,243
2013-8-23,84,71,57,54,53,50,86,59,32,29.92,29.84,29.75,10,10,10,20,11,28,0.00,2,,215
2013-8-24,84,72,59,57,54,47,84,58,32,29.90,29.81,29.78,10,10,10,21,13,37,0.00,0,,223
2013-8-25,84,73,61,60,58,53,90,67,43,29.93,29.88,29.84,10,10,10,22,10,26,0.00,2,,214
2013-8-26,82,71,60,56,54,49,84,60,36,30.01,29.92,29.85,10,10,10,16,9,40,0.00,3,,252
2013-8-27,88,73,57,56,52,47,80,53,25,29.86,29.81,29.76,10,10,10,20,9,23,0.00,0,,241
2013-8-28,86,73,59,60,57,55,84,61,37,29.90,29.84,29.81,10,10,10,18,11,28,0.00,0,,236
2013-8-29,85,73,61,61,58,56,90,64,37,30.04,29.97,29.91,10,10,10,17,9,24,0.00,2,,247
2013-8-30,94,78,62,59,56,46,90,55,20,29.99,29.93,29.86,10,10,10,17,8,33,0.00,0,,239
2013-8-31,88,75,62,56,54,48,78,53,27,29.92,29.88,29.83,10,10,10,16,9,28,0.00,1,,221